sensor_id;sensor_type;location;lat;lon;timestamp;P1;durP1;ratioP1;P2;durP2;ratioP2
3597;SDS011;1813;52.016;8.714;2023-12-04T00:01:15;35.40;;;19.37;;
3597;SDS011;1813;52.016;8.714;2023-12-04T00:03:49;33.33;;;19.47;;
3597;SDS011;1813;52.016;8.714;2023-12-04T00:06:26;35.90;;;18.30;;
3597;SDS011;1813;52.016;8.714;2023-12-04T00:08:59;35.67;;;18.30;;
3597;SDS011;1813;52.016;8.714;2023-12-04T00:11:33;32.93;;;18.80;;
3597;SDS011;1813;52.016;8.714;2023-12-04T00:14:07;36.10;;;19.43;;
3597;SDS011;1813;52.016;8.714;2023-12-04T00:16:41;32.90;;;18.37;;
3597;SDS011;1813;52.016;8.714;2023-12-04T00:19:14;33.83;;;18.17;;
3597;SDS011;1813;52.016;8.714;2023-12-04T00:21:50;29.00;;;16.80;;
3597;SDS011;1813;52.016;8.714;2023-12-04T00:24:26;31.53;;;17.97;;
3597;SDS011;1813;52.016;8.714;2023-12-04T00:27:00;29.13;;;16.40;;
3597;SDS011;1813;52.016;8.714;2023-12-04T00:29:33;33.50;;;18.33;;
3597;SDS011;1813;52.016;8.714;2023-12-04T00:32:07;31.30;;;17.53;;
3597;SDS011;1813;52.016;8.714;2023-12-04T00:34:41;32.07;;;17.40;;
3597;SDS011;1813;52.016;8.714;2023-12-04T00:37:18;30.60;;;17.70;;
3597;SDS011;1813;52.016;8.714;2023-12-04T00:39:52;27.70;;;16.67;;
3597;SDS011;1813;52.016;8.714;2023-12-04T00:42:26;29.33;;;16.90;;
3597;SDS011;1813;52.016;8.714;2023-12-04T00:44:59;31.40;;;17.47;;
3597;SDS011;1813;52.016;8.714;2023-12-04T00:47:33;28.80;;;16.67;;
3597;SDS011;1813;52.016;8.714;2023-12-04T00:50:07;31.53;;;17.37;;
3597;SDS011;1813;52.016;8.714;2023-12-04T00:52:44;31.90;;;17.50;;
3597;SDS011;1813;52.016;8.714;2023-12-04T00:55:18;32.13;;;17.40;;
3597;SDS011;1813;52.016;8.714;2023-12-04T00:57:52;31.37;;;17.37;;
3597;SDS011;1813;52.016;8.714;2023-12-04T01:00:25;31.03;;;18.00;;
3597;SDS011;1813;52.016;8.714;2023-12-04T01:02:59;30.90;;;17.50;;
3597;SDS011;1813;52.016;8.714;2023-12-04T01:05:33;31.80;;;18.00;;
3597;SDS011;1813;52.016;8.714;2023-12-04T01:08:09;34.13;;;18.17;;
3597;SDS011;1813;52.016;8.714;2023-12-04T01:10:42;34.13;;;18.10;;
3597;SDS011;1813;52.016;8.714;2023-12-04T01:13:16;30.73;;;17.30;;
3597;SDS011;1813;52.016;8.714;2023-12-04T01:15:50;29.17;;;16.63;;
3597;SDS011;1813;52.016;8.714;2023-12-04T01:18:24;32.17;;;17.67;;
3597;SDS011;1813;52.016;8.714;2023-12-04T01:20:57;36.33;;;18.50;;
3597;SDS011;1813;52.016;8.714;2023-12-04T01:23:34;34.60;;;19.10;;
3597;SDS011;1813;52.016;8.714;2023-12-04T01:26:09;33.43;;;18.43;;
3597;SDS011;1813;52.016;8.714;2023-12-04T01:28:43;32.40;;;17.83;;
3597;SDS011;1813;52.016;8.714;2023-12-04T01:31:17;35.03;;;19.23;;
3597;SDS011;1813;52.016;8.714;2023-12-04T01:33:50;36.37;;;18.93;;
3597;SDS011;1813;52.016;8.714;2023-12-04T01:36:24;35.90;;;19.10;;
3597;SDS011;1813;52.016;8.714;2023-12-04T01:39:00;37.37;;;20.40;;
3597;SDS011;1813;52.016;8.714;2023-12-04T01:41:34;38.60;;;19.73;;
3597;SDS011;1813;52.016;8.714;2023-12-04T01:44:07;34.43;;;18.73;;
3597;SDS011;1813;52.016;8.714;2023-12-04T01:46:41;33.80;;;18.73;;
3597;SDS011;1813;52.016;8.714;2023-12-04T01:49:15;35.20;;;18.77;;
3597;SDS011;1813;52.016;8.714;2023-12-04T01:51:49;37.47;;;19.17;;
3597;SDS011;1813;52.016;8.714;2023-12-04T01:54:25;38.57;;;19.40;;
3597;SDS011;1813;52.016;8.714;2023-12-04T01:56:59;33.17;;;18.10;;
3597;SDS011;1813;52.016;8.714;2023-12-04T01:59:35;31.83;;;17.57;;
3597;SDS011;1813;52.016;8.714;2023-12-04T02:02:09;35.53;;;18.10;;
3597;SDS011;1813;52.016;8.714;2023-12-04T02:04:44;32.73;;;18.70;;
3597;SDS011;1813;52.016;8.714;2023-12-04T02:07:17;35.40;;;18.60;;
3597;SDS011;1813;52.016;8.714;2023-12-04T02:09:54;29.93;;;16.80;;
3597;SDS011;1813;52.016;8.714;2023-12-04T02:12:27;32.07;;;17.67;;
3597;SDS011;1813;52.016;8.714;2023-12-04T02:15:02;33.23;;;17.97;;
3597;SDS011;1813;52.016;8.714;2023-12-04T02:17:36;36.70;;;19.60;;
3597;SDS011;1813;52.016;8.714;2023-12-04T02:20:12;41.80;;;22.70;;
3597;SDS011;1813;52.016;8.714;2023-12-04T02:22:46;49.23;;;24.70;;
3597;SDS011;1813;52.016;8.714;2023-12-04T02:25:22;52.50;;;26.87;;
3597;SDS011;1813;52.016;8.714;2023-12-04T02:27:56;54.90;;;26.90;;
3597;SDS011;1813;52.016;8.714;2023-12-04T02:30:32;60.23;;;28.43;;
3597;SDS011;1813;52.016;8.714;2023-12-04T02:33:10;55.70;;;27.97;;
3597;SDS011;1813;52.016;8.714;2023-12-04T02:35:46;54.47;;;27.87;;
3597;SDS011;1813;52.016;8.714;2023-12-04T02:38:20;52.57;;;27.30;;
3597;SDS011;1813;52.016;8.714;2023-12-04T02:40:57;60.60;;;29.93;;
3597;SDS011;1813;52.016;8.714;2023-12-04T02:43:31;56.17;;;28.50;;
3597;SDS011;1813;52.016;8.714;2023-12-04T02:46:06;57.07;;;28.90;;
3597;SDS011;1813;52.016;8.714;2023-12-04T02:48:39;59.13;;;29.53;;
3597;SDS011;1813;52.016;8.714;2023-12-04T02:51:14;57.63;;;28.67;;
3597;SDS011;1813;52.016;8.714;2023-12-04T02:53:47;58.30;;;28.60;;
3597;SDS011;1813;52.016;8.714;2023-12-04T02:56:24;54.50;;;27.20;;
3597;SDS011;1813;52.016;8.714;2023-12-04T02:58:58;58.90;;;28.83;;
3597;SDS011;1813;52.016;8.714;2023-12-04T03:01:31;53.27;;;28.07;;
3597;SDS011;1813;52.016;8.714;2023-12-04T03:04:06;54.77;;;27.40;;
3597;SDS011;1813;52.016;8.714;2023-12-04T03:06:40;54.97;;;27.10;;
3597;SDS011;1813;52.016;8.714;2023-12-04T03:09:13;49.80;;;26.20;;
3597;SDS011;1813;52.016;8.714;2023-12-04T03:11:50;52.90;;;27.23;;
3597;SDS011;1813;52.016;8.714;2023-12-04T03:14:23;47.33;;;26.03;;
3597;SDS011;1813;52.016;8.714;2023-12-04T03:16:57;49.03;;;26.23;;
3597;SDS011;1813;52.016;8.714;2023-12-04T03:19:31;51.73;;;26.07;;
3597;SDS011;1813;52.016;8.714;2023-12-04T03:22:04;49.60;;;25.07;;
3597;SDS011;1813;52.016;8.714;2023-12-04T03:24:38;45.50;;;24.70;;
3597;SDS011;1813;52.016;8.714;2023-12-04T03:27:14;43.47;;;24.60;;
3597;SDS011;1813;52.016;8.714;2023-12-04T03:29:48;43.00;;;23.80;;
3597;SDS011;1813;52.016;8.714;2023-12-04T03:32:23;43.50;;;24.10;;
3597;SDS011;1813;52.016;8.714;2023-12-04T03:34:56;41.67;;;23.37;;
3597;SDS011;1813;52.016;8.714;2023-12-04T03:37:31;43.57;;;23.20;;
3597;SDS011;1813;52.016;8.714;2023-12-04T03:40:05;41.47;;;22.50;;
3597;SDS011;1813;52.016;8.714;2023-12-04T03:42:44;41.37;;;22.60;;
3597;SDS011;1813;52.016;8.714;2023-12-04T03:45:17;37.40;;;22.30;;
3597;SDS011;1813;52.016;8.714;2023-12-04T03:47:51;37.47;;;22.00;;
3597;SDS011;1813;52.016;8.714;2023-12-04T03:50:24;37.43;;;21.60;;
3597;SDS011;1813;52.016;8.714;2023-12-04T03:52:57;35.63;;;21.50;;
3597;SDS011;1813;52.016;8.714;2023-12-04T03:55:31;35.70;;;20.90;;
3597;SDS011;1813;52.016;8.714;2023-12-04T03:58:07;36.30;;;20.40;;
3597;SDS011;1813;52.016;8.714;2023-12-04T04:00:41;36.47;;;20.30;;
3597;SDS011;1813;52.016;8.714;2023-12-04T04:03:15;35.87;;;20.40;;
3597;SDS011;1813;52.016;8.714;2023-12-04T04:05:48;31.87;;;19.27;;
3597;SDS011;1813;52.016;8.714;2023-12-04T04:08:22;34.53;;;19.40;;
3597;SDS011;1813;52.016;8.714;2023-12-04T04:10:56;31.20;;;19.67;;
3597;SDS011;1813;52.016;8.714;2023-12-04T04:13:32;32.20;;;19.20;;
3597;SDS011;1813;52.016;8.714;2023-12-04T04:16:06;34.60;;;19.90;;
3597;SDS011;1813;52.016;8.714;2023-12-04T04:18:43;31.33;;;18.40;;
3597;SDS011;1813;52.016;8.714;2023-12-04T04:21:17;34.23;;;19.90;;
3597;SDS011;1813;52.016;8.714;2023-12-04T04:23:51;30.93;;;18.93;;
3597;SDS011;1813;52.016;8.714;2023-12-04T04:26:25;33.10;;;19.10;;
3597;SDS011;1813;52.016;8.714;2023-12-04T04:29:01;33.40;;;19.50;;
3597;SDS011;1813;52.016;8.714;2023-12-04T04:31:35;34.70;;;19.70;;
3597;SDS011;1813;52.016;8.714;2023-12-04T04:34:09;32.43;;;19.70;;
3597;SDS011;1813;52.016;8.714;2023-12-04T04:36:43;34.70;;;20.03;;
3597;SDS011;1813;52.016;8.714;2023-12-04T04:39:19;30.70;;;18.77;;
3597;SDS011;1813;52.016;8.714;2023-12-04T04:41:55;30.80;;;17.93;;
3597;SDS011;1813;52.016;8.714;2023-12-04T04:44:41;32.20;;;18.63;;
3597;SDS011;1813;52.016;8.714;2023-12-04T04:47:15;31.63;;;19.00;;
3597;SDS011;1813;52.016;8.714;2023-12-04T04:49:49;30.13;;;18.00;;
3597;SDS011;1813;52.016;8.714;2023-12-04T04:52:23;32.87;;;18.67;;
3597;SDS011;1813;52.016;8.714;2023-12-04T04:54:57;31.43;;;18.67;;
3597;SDS011;1813;52.016;8.714;2023-12-04T04:57:30;32.57;;;19.53;;
3597;SDS011;1813;52.016;8.714;2023-12-04T05:00:09;32.83;;;18.90;;
3597;SDS011;1813;52.016;8.714;2023-12-04T05:02:46;29.97;;;17.77;;
3597;SDS011;1813;52.016;8.714;2023-12-04T05:05:20;28.20;;;17.43;;
3597;SDS011;1813;52.016;8.714;2023-12-04T05:07:53;30.00;;;18.93;;
3597;SDS011;1813;52.016;8.714;2023-12-04T05:10:27;30.00;;;17.47;;
3597;SDS011;1813;52.016;8.714;2023-12-04T05:13:01;25.33;;;16.40;;
3597;SDS011;1813;52.016;8.714;2023-12-04T05:15:37;28.97;;;17.10;;
3597;SDS011;1813;52.016;8.714;2023-12-04T05:18:11;30.00;;;18.07;;
3597;SDS011;1813;52.016;8.714;2023-12-04T05:20:42;27.13;;;16.70;;
3597;SDS011;1813;52.016;8.714;2023-12-04T05:23:16;40.33;;;21.30;;
3597;SDS011;1813;52.016;8.714;2023-12-04T05:25:51;30.73;;;18.33;;
3597;SDS011;1813;52.016;8.714;2023-12-04T05:28:24;27.20;;;16.87;;
3597;SDS011;1813;52.016;8.714;2023-12-04T05:31:04;30.27;;;18.10;;
3597;SDS011;1813;52.016;8.714;2023-12-04T05:33:38;28.13;;;16.50;;
3597;SDS011;1813;52.016;8.714;2023-12-04T05:36:11;28.00;;;17.27;;
3597;SDS011;1813;52.016;8.714;2023-12-04T05:38:45;28.60;;;16.67;;
3597;SDS011;1813;52.016;8.714;2023-12-04T05:41:18;30.00;;;16.77;;
3597;SDS011;1813;52.016;8.714;2023-12-04T05:43:52;27.43;;;16.90;;
3597;SDS011;1813;52.016;8.714;2023-12-04T05:46:28;27.73;;;16.50;;
3597;SDS011;1813;52.016;8.714;2023-12-04T05:49:02;28.30;;;17.20;;
3597;SDS011;1813;52.016;8.714;2023-12-04T05:51:37;28.93;;;17.20;;
3597;SDS011;1813;52.016;8.714;2023-12-04T05:54:10;29.87;;;17.37;;
3597;SDS011;1813;52.016;8.714;2023-12-04T05:56:44;27.63;;;17.20;;
3597;SDS011;1813;52.016;8.714;2023-12-04T05:59:18;27.03;;;17.43;;
3597;SDS011;1813;52.016;8.714;2023-12-04T06:01:55;29.00;;;18.07;;
3597;SDS011;1813;52.016;8.714;2023-12-04T06:04:30;29.73;;;17.40;;
3597;SDS011;1813;52.016;8.714;2023-12-04T06:07:03;28.13;;;17.17;;
3597;SDS011;1813;52.016;8.714;2023-12-04T06:09:38;26.60;;;17.57;;
3597;SDS011;1813;52.016;8.714;2023-12-04T06:12:11;28.47;;;17.33;;
3597;SDS011;1813;52.016;8.714;2023-12-04T06:14:45;25.50;;;16.07;;
3597;SDS011;1813;52.016;8.714;2023-12-04T06:17:18;26.83;;;16.70;;
3597;SDS011;1813;52.016;8.714;2023-12-04T06:19:52;27.07;;;16.43;;
3597;SDS011;1813;52.016;8.714;2023-12-04T06:22:26;28.70;;;17.67;;
3597;SDS011;1813;52.016;8.714;2023-12-04T06:25:01;29.43;;;17.47;;
3597;SDS011;1813;52.016;8.714;2023-12-04T06:27:35;27.60;;;16.63;;
3597;SDS011;1813;52.016;8.714;2023-12-04T06:30:10;26.17;;;16.80;;
3597;SDS011;1813;52.016;8.714;2023-12-04T06:32:47;25.47;;;16.90;;
3597;SDS011;1813;52.016;8.714;2023-12-04T06:35:21;26.87;;;17.53;;
3597;SDS011;1813;52.016;8.714;2023-12-04T06:37:56;31.53;;;17.53;;
3597;SDS011;1813;52.016;8.714;2023-12-04T06:40:37;27.53;;;16.47;;
3597;SDS011;1813;52.016;8.714;2023-12-04T06:43:12;29.63;;;17.27;;
3597;SDS011;1813;52.016;8.714;2023-12-04T06:45:49;26.50;;;17.27;;
3597;SDS011;1813;52.016;8.714;2023-12-04T06:48:26;27.63;;;17.13;;
3597;SDS011;1813;52.016;8.714;2023-12-04T06:51:00;31.83;;;17.83;;
3597;SDS011;1813;52.016;8.714;2023-12-04T06:53:34;26.30;;;16.20;;
3597;SDS011;1813;52.016;8.714;2023-12-04T06:56:08;29.20;;;17.10;;
3597;SDS011;1813;52.016;8.714;2023-12-04T06:58:42;28.20;;;17.23;;
3597;SDS011;1813;52.016;8.714;2023-12-04T07:01:16;25.27;;;16.17;;
3597;SDS011;1813;52.016;8.714;2023-12-04T07:03:52;25.40;;;16.70;;
3597;SDS011;1813;52.016;8.714;2023-12-04T07:06:25;27.63;;;16.57;;
3597;SDS011;1813;52.016;8.714;2023-12-04T07:08:59;25.63;;;16.07;;
3597;SDS011;1813;52.016;8.714;2023-12-04T07:11:37;23.73;;;15.30;;
3597;SDS011;1813;52.016;8.714;2023-12-04T07:14:11;25.00;;;15.57;;
3597;SDS011;1813;52.016;8.714;2023-12-04T07:16:45;23.80;;;15.27;;
3597;SDS011;1813;52.016;8.714;2023-12-04T07:19:21;24.97;;;15.10;;
3597;SDS011;1813;52.016;8.714;2023-12-04T07:21:54;23.90;;;15.90;;
3597;SDS011;1813;52.016;8.714;2023-12-04T07:24:28;23.00;;;15.50;;
3597;SDS011;1813;52.016;8.714;2023-12-04T07:27:01;25.67;;;15.80;;
3597;SDS011;1813;52.016;8.714;2023-12-04T07:29:35;24.73;;;15.43;;
3597;SDS011;1813;52.016;8.714;2023-12-04T07:32:11;24.07;;;15.33;;
3597;SDS011;1813;52.016;8.714;2023-12-04T07:34:47;25.57;;;16.07;;
3597;SDS011;1813;52.016;8.714;2023-12-04T07:37:21;26.77;;;15.93;;
3597;SDS011;1813;52.016;8.714;2023-12-04T07:39:55;24.67;;;15.20;;
3597;SDS011;1813;52.016;8.714;2023-12-04T07:42:28;22.17;;;14.80;;
3597;SDS011;1813;52.016;8.714;2023-12-04T07:45:02;24.20;;;15.33;;
3597;SDS011;1813;52.016;8.714;2023-12-04T07:47:36;23.87;;;14.90;;
3597;SDS011;1813;52.016;8.714;2023-12-04T07:50:13;25.33;;;16.57;;
3597;SDS011;1813;52.016;8.714;2023-12-04T07:52:47;21.97;;;14.70;;
3597;SDS011;1813;52.016;8.714;2023-12-04T07:55:22;25.83;;;16.13;;
3597;SDS011;1813;52.016;8.714;2023-12-04T07:57:58;22.87;;;15.50;;
3597;SDS011;1813;52.016;8.714;2023-12-04T08:00:31;26.37;;;16.17;;
3597;SDS011;1813;52.016;8.714;2023-12-04T08:03:05;24.20;;;15.00;;
3597;SDS011;1813;52.016;8.714;2023-12-04T08:05:41;24.67;;;15.40;;
3597;SDS011;1813;52.016;8.714;2023-12-04T08:08:14;26.70;;;15.20;;
3597;SDS011;1813;52.016;8.714;2023-12-04T08:10:48;22.97;;;14.80;;
3597;SDS011;1813;52.016;8.714;2023-12-04T08:13:21;24.10;;;15.67;;
3597;SDS011;1813;52.016;8.714;2023-12-04T08:15:55;24.50;;;14.50;;
3597;SDS011;1813;52.016;8.714;2023-12-04T08:18:28;21.47;;;13.70;;
3597;SDS011;1813;52.016;8.714;2023-12-04T08:21:05;23.03;;;14.90;;
3597;SDS011;1813;52.016;8.714;2023-12-04T08:23:39;20.60;;;13.47;;
3597;SDS011;1813;52.016;8.714;2023-12-04T08:26:13;22.97;;;14.80;;
3597;SDS011;1813;52.016;8.714;2023-12-04T08:28:46;23.00;;;14.20;;
3597;SDS011;1813;52.016;8.714;2023-12-04T08:31:20;20.03;;;13.93;;
3597;SDS011;1813;52.016;8.714;2023-12-04T08:33:53;21.73;;;13.73;;
3597;SDS011;1813;52.016;8.714;2023-12-04T08:36:30;24.63;;;13.60;;
3597;SDS011;1813;52.016;8.714;2023-12-04T08:39:03;22.93;;;13.70;;
3597;SDS011;1813;52.016;8.714;2023-12-04T08:41:37;21.87;;;13.93;;
3597;SDS011;1813;52.016;8.714;2023-12-04T08:44:10;21.17;;;14.10;;
3597;SDS011;1813;52.016;8.714;2023-12-04T08:46:44;21.97;;;14.47;;
3597;SDS011;1813;52.016;8.714;2023-12-04T08:49:17;23.60;;;14.93;;
3597;SDS011;1813;52.016;8.714;2023-12-04T08:51:53;23.50;;;14.47;;
3597;SDS011;1813;52.016;8.714;2023-12-04T08:54:27;19.37;;;13.10;;
3597;SDS011;1813;52.016;8.714;2023-12-04T08:57:01;22.87;;;15.27;;
3597;SDS011;1813;52.016;8.714;2023-12-04T08:59:34;22.00;;;14.70;;
3597;SDS011;1813;52.016;8.714;2023-12-04T09:02:08;20.57;;;14.47;;
3597;SDS011;1813;52.016;8.714;2023-12-04T09:04:41;22.30;;;14.20;;
3597;SDS011;1813;52.016;8.714;2023-12-04T09:07:18;21.07;;;14.03;;
3597;SDS011;1813;52.016;8.714;2023-12-04T09:09:51;22.30;;;15.10;;
3597;SDS011;1813;52.016;8.714;2023-12-04T09:12:25;23.83;;;15.07;;
3597;SDS011;1813;52.016;8.714;2023-12-04T09:14:59;22.23;;;14.53;;
3597;SDS011;1813;52.016;8.714;2023-12-04T09:17:33;23.90;;;15.10;;
3597;SDS011;1813;52.016;8.714;2023-12-04T09:20:06;26.07;;;16.33;;
3597;SDS011;1813;52.016;8.714;2023-12-04T09:22:43;22.50;;;15.00;;
3597;SDS011;1813;52.016;8.714;2023-12-04T09:25:17;24.20;;;15.20;;
3597;SDS011;1813;52.016;8.714;2023-12-04T09:27:51;25.37;;;15.60;;
3597;SDS011;1813;52.016;8.714;2023-12-04T09:30:25;25.50;;;15.33;;
3597;SDS011;1813;52.016;8.714;2023-12-04T09:32:59;22.60;;;14.83;;
3597;SDS011;1813;52.016;8.714;2023-12-04T09:35:32;22.93;;;15.10;;
3597;SDS011;1813;52.016;8.714;2023-12-04T09:38:09;25.10;;;16.03;;
3597;SDS011;1813;52.016;8.714;2023-12-04T09:40:43;24.30;;;15.40;;
3597;SDS011;1813;52.016;8.714;2023-12-04T09:43:17;25.57;;;16.47;;
3597;SDS011;1813;52.016;8.714;2023-12-04T09:45:52;24.33;;;15.20;;
3597;SDS011;1813;52.016;8.714;2023-12-04T09:48:27;28.33;;;17.30;;
3597;SDS011;1813;52.016;8.714;2023-12-04T09:51:03;27.43;;;17.37;;
3597;SDS011;1813;52.016;8.714;2023-12-04T09:53:41;23.23;;;15.63;;
3597;SDS011;1813;52.016;8.714;2023-12-04T09:56:14;21.23;;;13.90;;
3597;SDS011;1813;52.016;8.714;2023-12-04T09:58:51;22.90;;;15.10;;
3597;SDS011;1813;52.016;8.714;2023-12-04T10:01:31;24.40;;;16.03;;
3597;SDS011;1813;52.016;8.714;2023-12-04T10:04:05;21.80;;;15.10;;
3597;SDS011;1813;52.016;8.714;2023-12-04T10:06:41;21.47;;;14.47;;
3597;SDS011;1813;52.016;8.714;2023-12-04T10:09:21;21.53;;;14.00;;
3597;SDS011;1813;52.016;8.714;2023-12-04T10:11:55;20.03;;;13.90;;
3597;SDS011;1813;52.016;8.714;2023-12-04T10:14:32;22.33;;;14.63;;
3597;SDS011;1813;52.016;8.714;2023-12-04T10:17:14;21.87;;;13.73;;
3597;SDS011;1813;52.016;8.714;2023-12-04T10:19:48;13.10;;;8.50;;
3597;SDS011;1813;52.016;8.714;2023-12-04T10:22:51;11.13;;;8.67;;
3597;SDS011;1813;52.016;8.714;2023-12-04T10:25:29;8.87;;;6.90;;
3597;SDS011;1813;52.016;8.714;2023-12-04T10:28:07;11.40;;;8.50;;
3597;SDS011;1813;52.016;8.714;2023-12-04T10:30:42;8.30;;;6.70;;
3597;SDS011;1813;52.016;8.714;2023-12-04T10:33:15;11.37;;;8.50;;
3597;SDS011;1813;52.016;8.714;2023-12-04T10:35:49;10.60;;;7.50;;
3597;SDS011;1813;52.016;8.714;2023-12-04T10:38:23;8.63;;;7.20;;
3597;SDS011;1813;52.016;8.714;2023-12-04T10:41:00;8.07;;;6.87;;
3597;SDS011;1813;52.016;8.714;2023-12-04T10:43:46;8.20;;;7.23;;
3597;SDS011;1813;52.016;8.714;2023-12-04T10:46:21;9.23;;;7.40;;
3597;SDS011;1813;52.016;8.714;2023-12-04T10:48:54;11.00;;;7.47;;
3597;SDS011;1813;52.016;8.714;2023-12-04T10:51:30;9.07;;;7.50;;
3597;SDS011;1813;52.016;8.714;2023-12-04T10:54:04;10.47;;;7.23;;
3597;SDS011;1813;52.016;8.714;2023-12-04T10:56:42;7.77;;;6.50;;
3597;SDS011;1813;52.016;8.714;2023-12-04T10:59:18;9.77;;;7.30;;
3597;SDS011;1813;52.016;8.714;2023-12-04T11:01:59;8.20;;;6.93;;
3597;SDS011;1813;52.016;8.714;2023-12-04T11:04:38;8.80;;;7.10;;
3597;SDS011;1813;52.016;8.714;2023-12-04T11:07:14;9.60;;;8.03;;
3597;SDS011;1813;52.016;8.714;2023-12-04T11:09:48;11.90;;;8.23;;
3597;SDS011;1813;52.016;8.714;2023-12-04T11:12:25;20.33;;;12.30;;
3597;SDS011;1813;52.016;8.714;2023-12-04T11:15:03;19.70;;;13.10;;
3597;SDS011;1813;52.016;8.714;2023-12-04T11:17:40;20.00;;;12.90;;
3597;SDS011;1813;52.016;8.714;2023-12-04T11:20:17;19.20;;;13.03;;
3597;SDS011;1813;52.016;8.714;2023-12-04T11:22:54;20.00;;;13.13;;
3597;SDS011;1813;52.016;8.714;2023-12-04T11:25:29;19.77;;;13.23;;
3597;SDS011;1813;52.016;8.714;2023-12-04T11:28:07;20.50;;;13.80;;
3597;SDS011;1813;52.016;8.714;2023-12-04T11:30:42;20.87;;;13.50;;
3597;SDS011;1813;52.016;8.714;2023-12-04T11:33:16;22.40;;;14.00;;
3597;SDS011;1813;52.016;8.714;2023-12-04T11:35:50;18.73;;;13.40;;
3597;SDS011;1813;52.016;8.714;2023-12-04T11:38:23;19.50;;;13.30;;
3597;SDS011;1813;52.016;8.714;2023-12-04T11:40:58;19.00;;;12.90;;
3597;SDS011;1813;52.016;8.714;2023-12-04T11:43:34;19.63;;;13.17;;
3597;SDS011;1813;52.016;8.714;2023-12-04T11:46:09;17.97;;;12.40;;
3597;SDS011;1813;52.016;8.714;2023-12-04T11:48:43;18.97;;;12.83;;
3597;SDS011;1813;52.016;8.714;2023-12-04T11:54:23;20.77;;;13.47;;
3597;SDS011;1813;52.016;8.714;2023-12-04T11:57:02;18.67;;;12.70;;
3597;SDS011;1813;52.016;8.714;2023-12-04T12:00:06;20.50;;;12.87;;
3597;SDS011;1813;52.016;8.714;2023-12-04T12:02:46;19.50;;;12.77;;
3597;SDS011;1813;52.016;8.714;2023-12-04T12:05:21;17.20;;;12.40;;
3597;SDS011;1813;52.016;8.714;2023-12-04T12:07:57;17.43;;;12.50;;
3597;SDS011;1813;52.016;8.714;2023-12-04T12:10:36;17.93;;;12.30;;
3597;SDS011;1813;52.016;8.714;2023-12-04T12:13:10;17.63;;;12.77;;
3597;SDS011;1813;52.016;8.714;2023-12-04T12:15:49;19.80;;;11.83;;
3597;SDS011;1813;52.016;8.714;2023-12-04T12:18:24;18.90;;;12.73;;
3597;SDS011;1813;52.016;8.714;2023-12-04T12:20:59;18.63;;;12.17;;
3597;SDS011;1813;52.016;8.714;2023-12-04T12:23:33;18.30;;;11.60;;
3597;SDS011;1813;52.016;8.714;2023-12-04T12:26:07;17.70;;;12.20;;
3597;SDS011;1813;52.016;8.714;2023-12-04T12:28:41;14.70;;;11.17;;
3597;SDS011;1813;52.016;8.714;2023-12-04T12:31:17;16.50;;;11.70;;
3597;SDS011;1813;52.016;8.714;2023-12-04T12:33:51;17.87;;;11.90;;
3597;SDS011;1813;52.016;8.714;2023-12-04T12:36:26;17.60;;;11.63;;
3597;SDS011;1813;52.016;8.714;2023-12-04T12:39:02;19.30;;;12.33;;
3597;SDS011;1813;52.016;8.714;2023-12-04T12:41:38;15.17;;;11.20;;
3597;SDS011;1813;52.016;8.714;2023-12-04T12:44:13;15.93;;;11.07;;
3597;SDS011;1813;52.016;8.714;2023-12-04T12:46:50;18.83;;;11.63;;
3597;SDS011;1813;52.016;8.714;2023-12-04T12:49:24;16.60;;;11.60;;
3597;SDS011;1813;52.016;8.714;2023-12-04T12:51:59;17.47;;;11.40;;
3597;SDS011;1813;52.016;8.714;2023-12-04T12:54:36;18.83;;;12.90;;
3597;SDS011;1813;52.016;8.714;2023-12-04T12:57:10;18.17;;;12.40;;
3597;SDS011;1813;52.016;8.714;2023-12-04T12:59:45;18.07;;;12.17;;
3597;SDS011;1813;52.016;8.714;2023-12-04T13:02:22;20.20;;;11.00;;
3597;SDS011;1813;52.016;8.714;2023-12-04T13:04:55;16.03;;;11.00;;
3597;SDS011;1813;52.016;8.714;2023-12-04T13:07:29;16.20;;;10.87;;
3597;SDS011;1813;52.016;8.714;2023-12-04T13:10:03;15.83;;;11.17;;
3597;SDS011;1813;52.016;8.714;2023-12-04T13:12:38;15.30;;;10.60;;
3597;SDS011;1813;52.016;8.714;2023-12-04T13:15:13;16.20;;;11.53;;
3597;SDS011;1813;52.016;8.714;2023-12-04T13:17:49;16.67;;;11.60;;
3597;SDS011;1813;52.016;8.714;2023-12-04T13:20:23;16.30;;;10.50;;
3597;SDS011;1813;52.016;8.714;2023-12-04T13:22:57;16.37;;;10.87;;
3597;SDS011;1813;52.016;8.714;2023-12-04T13:25:33;21.50;;;11.70;;
3597;SDS011;1813;52.016;8.714;2023-12-04T13:28:06;14.07;;;10.20;;
3597;SDS011;1813;52.016;8.714;2023-12-04T13:30:40;14.87;;;10.70;;
3597;SDS011;1813;52.016;8.714;2023-12-04T13:33:19;15.50;;;11.30;;
3597;SDS011;1813;52.016;8.714;2023-12-04T13:35:52;15.60;;;10.60;;
3597;SDS011;1813;52.016;8.714;2023-12-04T13:38:26;15.03;;;10.67;;
3597;SDS011;1813;52.016;8.714;2023-12-04T13:41:00;14.53;;;10.67;;
3597;SDS011;1813;52.016;8.714;2023-12-04T13:43:49;17.67;;;11.40;;
3597;SDS011;1813;52.016;8.714;2023-12-04T13:46:22;16.33;;;11.40;;
3597;SDS011;1813;52.016;8.714;2023-12-04T13:48:59;14.37;;;10.77;;
3597;SDS011;1813;52.016;8.714;2023-12-04T13:51:33;19.13;;;11.37;;
3597;SDS011;1813;52.016;8.714;2023-12-04T13:54:10;14.77;;;10.87;;
3597;SDS011;1813;52.016;8.714;2023-12-04T13:56:51;16.83;;;11.43;;
3597;SDS011;1813;52.016;8.714;2023-12-04T13:59:28;14.47;;;10.30;;
3597;SDS011;1813;52.016;8.714;2023-12-04T14:02:04;17.13;;;11.83;;
3597;SDS011;1813;52.016;8.714;2023-12-04T14:04:44;14.60;;;10.20;;
3597;SDS011;1813;52.016;8.714;2023-12-04T14:07:18;16.30;;;11.00;;
3597;SDS011;1813;52.016;8.714;2023-12-04T14:09:53;14.03;;;9.87;;
3597;SDS011;1813;52.016;8.714;2023-12-04T14:12:27;13.73;;;10.00;;
3597;SDS011;1813;52.016;8.714;2023-12-04T14:15:02;14.83;;;10.93;;
3597;SDS011;1813;52.016;8.714;2023-12-04T14:17:36;13.93;;;10.40;;
3597;SDS011;1813;52.016;8.714;2023-12-04T14:20:14;14.37;;;10.57;;
3597;SDS011;1813;52.016;8.714;2023-12-04T14:22:48;15.10;;;10.73;;
3597;SDS011;1813;52.016;8.714;2023-12-04T14:25:22;14.10;;;10.47;;
3597;SDS011;1813;52.016;8.714;2023-12-04T14:27:55;15.03;;;10.90;;
3597;SDS011;1813;52.016;8.714;2023-12-04T14:30:29;16.83;;;11.57;;
3597;SDS011;1813;52.016;8.714;2023-12-04T14:33:03;22.20;;;11.57;;
3597;SDS011;1813;52.016;8.714;2023-12-04T14:35:39;15.40;;;11.17;;
3597;SDS011;1813;52.016;8.714;2023-12-04T14:38:14;22.00;;;10.60;;
3597;SDS011;1813;52.016;8.714;2023-12-04T14:40:47;16.27;;;11.20;;
3597;SDS011;1813;52.016;8.714;2023-12-04T14:43:21;15.17;;;11.03;;
3597;SDS011;1813;52.016;8.714;2023-12-04T14:45:55;18.03;;;10.67;;
3597;SDS011;1813;52.016;8.714;2023-12-04T14:48:32;15.80;;;9.87;;
3597;SDS011;1813;52.016;8.714;2023-12-04T14:51:10;15.40;;;10.87;;
3597;SDS011;1813;52.016;8.714;2023-12-04T14:53:44;13.60;;;10.20;;
3597;SDS011;1813;52.016;8.714;2023-12-04T14:56:21;14.60;;;10.57;;
3597;SDS011;1813;52.016;8.714;2023-12-04T14:59:16;15.77;;;10.67;;
3597;SDS011;1813;52.016;8.714;2023-12-04T15:02:02;14.27;;;9.90;;
3597;SDS011;1813;52.016;8.714;2023-12-04T15:04:56;15.63;;;10.00;;
3597;SDS011;1813;52.016;8.714;2023-12-04T15:07:44;13.60;;;10.10;;
3597;SDS011;1813;52.016;8.714;2023-12-04T15:11:02;13.60;;;9.77;;
3597;SDS011;1813;52.016;8.714;2023-12-04T15:13:55;17.23;;;9.97;;
3597;SDS011;1813;52.016;8.714;2023-12-04T15:16:39;13.83;;;9.77;;
3597;SDS011;1813;52.016;8.714;2023-12-04T15:19:16;14.90;;;9.77;;
3597;SDS011;1813;52.016;8.714;2023-12-04T15:22:02;11.40;;;9.00;;
3597;SDS011;1813;52.016;8.714;2023-12-04T15:24:38;13.23;;;8.87;;
3597;SDS011;1813;52.016;8.714;2023-12-04T15:27:09;12.97;;;9.83;;
3597;SDS011;1813;52.016;8.714;2023-12-04T15:29:43;13.47;;;10.00;;
3597;SDS011;1813;52.016;8.714;2023-12-04T15:32:14;12.50;;;9.50;;
3597;SDS011;1813;52.016;8.714;2023-12-04T15:34:47;11.67;;;9.00;;
3597;SDS011;1813;52.016;8.714;2023-12-04T15:37:19;13.00;;;9.50;;
3597;SDS011;1813;52.016;8.714;2023-12-04T15:39:55;15.27;;;9.97;;
3597;SDS011;1813;52.016;8.714;2023-12-04T15:42:26;14.03;;;9.50;;